»·PEaware :: N988BE KSNA-KRAL

N988BE :: KSNA-KRAL

FLIGHT INFORMATION

Flight Status: Arrived
Operator: Privately registered:
United States
More flights under this callsign
Pilot: Dustin P. (22436)
Aircraft: CESSNA 172 SKYHAWK
(C172)
More flights by this aircraft type
Origin: KSNA John Wayne-Orange Co
United States
Destination: KRAL Riverside Mun
United States
More flights between these airports :: More routes between these airports
Route: +SLI V8 PDZ
File this flight plan on PilotEdge
Remarks:
Altitude:
(Current/Filed)
5,000ft
Speed:
(Current/Filed)
110kts
Departed: 06-Dec-18 04:20 PM
Arrived: 06-Dec-18 04:52 PM
Distance/Time
Traveled:
27nm/0:32
Distance/Time
To Go:
Arrived

Flight Plot

Page will automatically refresh every two minutes.


Map Options




Map Legend


Flown Route
Filed Route
Departure Airport
Arrival Airport
Navaid (VOR, NDB)
Fix

Horizontal Profiles

Position Reports

Time Latitude Longitude Heading Altitude Ground
Speed
06-Dec-18 15:53 33.672860 -117.873098 201 60ft 0kts
06-Dec-18 15:54 33.672860 -117.873098 201 60ft 0kts
06-Dec-18 15:55 33.672860 -117.873098 201 60ft 0kts
06-Dec-18 15:56 33.672860 -117.873098 201 60ft 0kts
06-Dec-18 15:57 33.672860 -117.873098 201 60ft 0kts
06-Dec-18 15:59 33.672860 -117.873098 201 60ft 0kts
06-Dec-18 16:00 33.672860 -117.873098 201 60ft 0kts
06-Dec-18 16:01 33.672860 -117.873098 201 60ft 0kts
06-Dec-18 16:02 33.672860 -117.873098 201 60ft 0kts
06-Dec-18 16:03 33.672860 -117.873098 201 60ft 0kts
06-Dec-18 16:04 33.672860 -117.873098 201 60ft 0kts
06-Dec-18 16:05 33.672860 -117.873098 201 60ft 0kts
06-Dec-18 16:06 33.672669 -117.872825 119 60ft 0kts
06-Dec-18 16:07 33.672669 -117.872825 119 60ft 0kts
06-Dec-18 16:08 33.672669 -117.872825 119 60ft 0kts
06-Dec-18 16:09 33.672669 -117.872825 119 60ft 0kts
06-Dec-18 16:10 33.672669 -117.872825 119 60ft 0kts
06-Dec-18 16:11 33.672669 -117.872825 119 60ft 0kts
06-Dec-18 16:12 33.672669 -117.872825 119 60ft 0kts
06-Dec-18 16:13 33.672669 -117.872825 119 60ft 0kts
06-Dec-18 16:14 33.672669 -117.872825 119 60ft 0kts
06-Dec-18 16:15 33.672669 -117.872825 119 60ft 0kts
06-Dec-18 16:16 33.671319 -117.873091 207 60ft 21kts
06-Dec-18 16:17 33.668448 -117.874679 157 60ft 0kts
06-Dec-18 16:18 33.668448 -117.874679 157 60ft 0kts
06-Dec-18 16:19 33.668163 -117.874378 123 60ft 9kts
06-Dec-18 16:20 33.677385 -117.869027 11 516ft 64kts
06-Dec-18 16:20 33.682334 -117.886319 250 1242ft 98kts
06-Dec-18 16:22 33.671153 -117.924763 250 2190ft 107kts
06-Dec-18 16:23 33.662662 -117.957652 272 3126ft 98kts
06-Dec-18 16:24 33.679791 -117.977963 332 4040ft 91kts
06-Dec-18 16:25 33.702850 -117.995308 331 4745ft 103kts
06-Dec-18 16:25 33.725198 -118.011865 331 4983ft 127kts
06-Dec-18 16:27 33.757890 -118.036029 331 4982ft 119kts
06-Dec-18 16:27 33.782234 -118.047704 28 4977ft 110kts
06-Dec-18 16:29 33.794849 -118.012225 77 4980ft 101kts
06-Dec-18 16:29 33.801407 -117.985796 77 4979ft 98kts
06-Dec-18 16:30 33.809374 -117.954583 76 4977ft 97kts
06-Dec-18 16:31 33.817371 -117.923628 76 4977ft 97kts
06-Dec-18 16:32 33.825334 -117.892828 75 4976ft 96kts
06-Dec-18 16:33 33.833271 -117.862086 76 4978ft 96kts
06-Dec-18 16:34 33.841164 -117.831493 75 4978ft 96kts
06-Dec-18 16:35 33.849136 -117.800556 77 4953ft 97kts
06-Dec-18 16:36 33.857020 -117.769072 78 4925ft 98kts
06-Dec-18 16:37 33.877968 -117.751131 11 4933ft 113kts
06-Dec-18 16:38 33.908958 -117.748049 11 4656ft 109kts
06-Dec-18 16:39 33.939042 -117.745474 11 4161ft 107kts
06-Dec-18 16:40 33.968667 -117.743415 10 3669ft 105kts
06-Dec-18 16:41 33.993256 -117.733926 76 3156ft 90kts
06-Dec-18 16:42 33.997302 -117.704270 88 2948ft 95kts
06-Dec-18 16:43 33.996053 -117.671503 101 2956ft 100kts
06-Dec-18 16:44 33.989824 -117.638417 103 2973ft 102kts
06-Dec-18 16:45 33.983599 -117.606212 103 2538ft 94kts
06-Dec-18 16:46 33.977846 -117.576018 103 2491ft 101kts
06-Dec-18 16:47 33.971971 -117.545709 103 2299ft 86kts
06-Dec-18 16:48 33.966624 -117.517920 102 1860ft 85kts
06-Dec-18 16:49 33.961515 -117.491415 101 1429ft 75kts
06-Dec-18 16:50 33.956813 -117.467021 101 1037ft 75kts
06-Dec-18 16:51 33.953010 -117.447168 105 771ft 29kts
06-Dec-18 16:52 33.952151 -117.446308 188 772ft 0kts
06-Dec-18 16:53 33.951712 -117.444900 105 775ft 6kts
06-Dec-18 16:54 33.950890 -117.440471 115 797ft 7kts
06-Dec-18 16:55 33.949846 -117.441160 208 791ft 0kts

Navigation Log

Ident Type
Flight plan parsing failed, navigation log unavailable